sensor_id;sensor_type;location;lat;lon;timestamp;P1;durP1;ratioP1;P2;durP2;ratioP2
7193;SDS011;3638;48.820;9.244;2023-08-06T00:00:16;9.10;;;7.82;;
7193;SDS011;3638;48.820;9.244;2023-08-06T00:02:44;7.60;;;6.78;;
7193;SDS011;3638;48.820;9.244;2023-08-06T00:05:11;8.65;;;7.75;;
7193;SDS011;3638;48.820;9.244;2023-08-06T00:07:38;8.13;;;7.32;;
7193;SDS011;3638;48.820;9.244;2023-08-06T00:10:06;8.88;;;7.95;;
7193;SDS011;3638;48.820;9.244;2023-08-06T00:12:35;8.13;;;7.32;;
7193;SDS011;3638;48.820;9.244;2023-08-06T00:15:02;9.18;;;8.02;;
7193;SDS011;3638;48.820;9.244;2023-08-06T00:17:30;9.65;;;7.68;;
7193;SDS011;3638;48.820;9.244;2023-08-06T00:19:57;9.48;;;7.85;;
7193;SDS011;3638;48.820;9.244;2023-08-06T00:22:29;8.77;;;7.82;;
7193;SDS011;3638;48.820;9.244;2023-08-06T00:24:56;10.15;;;9.07;;
7193;SDS011;3638;48.820;9.244;2023-08-06T00:27:24;9.40;;;8.45;;
7193;SDS011;3638;48.820;9.244;2023-08-06T00:29:52;10.27;;;9.15;;
7193;SDS011;3638;48.820;9.244;2023-08-06T00:32:21;9.57;;;8.63;;
7193;SDS011;3638;48.820;9.244;2023-08-06T00:34:48;10.87;;;9.57;;
7193;SDS011;3638;48.820;9.244;2023-08-06T00:37:15;10.70;;;9.45;;
7193;SDS011;3638;48.820;9.244;2023-08-06T00:39:43;11.85;;;9.93;;
7193;SDS011;3638;48.820;9.244;2023-08-06T00:42:11;11.02;;;9.68;;
7193;SDS011;3638;48.820;9.244;2023-08-06T00:44:38;11.60;;;10.43;;
7193;SDS011;3638;48.820;9.244;2023-08-06T00:47:07;12.48;;;10.43;;
7193;SDS011;3638;48.820;9.244;2023-08-06T00:49:35;14.98;;;11.77;;
7193;SDS011;3638;48.820;9.244;2023-08-06T00:52:03;14.15;;;12.65;;
7193;SDS011;3638;48.820;9.244;2023-08-06T00:54:31;15.63;;;13.23;;
7193;SDS011;3638;48.820;9.244;2023-08-06T00:56:59;12.95;;;11.55;;
7193;SDS011;3638;48.820;9.244;2023-08-06T00:59:28;14.23;;;12.73;;
7193;SDS011;3638;48.820;9.244;2023-08-06T01:01:55;17.55;;;13.63;;
7193;SDS011;3638;48.820;9.244;2023-08-06T01:04:24;14.50;;;13.10;;
7193;SDS011;3638;48.820;9.244;2023-08-06T01:06:52;15.32;;;13.57;;
7193;SDS011;3638;48.820;9.244;2023-08-06T01:09:30;16.27;;;12.40;;
7193;SDS011;3638;48.820;9.244;2023-08-06T01:12:05;15.75;;;12.73;;
7193;SDS011;3638;48.820;9.244;2023-08-06T01:14:37;15.60;;;13.23;;
7193;SDS011;3638;48.820;9.244;2023-08-06T01:17:10;15.85;;;12.93;;
7193;SDS011;3638;48.820;9.244;2023-08-06T01:19:40;14.73;;;13.23;;
7193;SDS011;3638;48.820;9.244;2023-08-06T01:22:08;16.30;;;12.20;;
7193;SDS011;3638;48.820;9.244;2023-08-06T01:24:35;14.27;;;12.73;;
7193;SDS011;3638;48.820;9.244;2023-08-06T01:27:04;13.07;;;11.75;;
7193;SDS011;3638;48.820;9.244;2023-08-06T01:29:34;12.10;;;10.70;;
7193;SDS011;3638;48.820;9.244;2023-08-06T01:32:04;12.30;;;11.00;;
7193;SDS011;3638;48.820;9.244;2023-08-06T01:34:32;11.40;;;10.20;;
7193;SDS011;3638;48.820;9.244;2023-08-06T01:37:00;11.52;;;10.00;;
7193;SDS011;3638;48.820;9.244;2023-08-06T01:39:30;11.30;;;10.20;;
7193;SDS011;3638;48.820;9.244;2023-08-06T01:41:59;13.20;;;9.95;;
7193;SDS011;3638;48.820;9.244;2023-08-06T01:44:27;10.88;;;9.55;;
7193;SDS011;3638;48.820;9.244;2023-08-06T01:46:54;11.20;;;10.10;;
7193;SDS011;3638;48.820;9.244;2023-08-06T01:49:21;11.02;;;9.93;;
7193;SDS011;3638;48.820;9.244;2023-08-06T01:51:48;10.25;;;9.07;;
7193;SDS011;3638;48.820;9.244;2023-08-06T01:54:16;9.43;;;8.48;;
7193;SDS011;3638;48.820;9.244;2023-08-06T01:56:44;9.70;;;8.73;;
7193;SDS011;3638;48.820;9.244;2023-08-06T01:59:11;11.10;;;8.10;;
7193;SDS011;3638;48.820;9.244;2023-08-06T02:01:39;9.15;;;8.25;;
7193;SDS011;3638;48.820;9.244;2023-08-06T02:04:06;6.75;;;6.05;;
7193;SDS011;3638;48.820;9.244;2023-08-06T02:06:33;7.00;;;6.30;;
7193;SDS011;3638;48.820;9.244;2023-08-06T02:09:00;5.93;;;5.32;;
7193;SDS011;3638;48.820;9.244;2023-08-06T02:11:27;5.82;;;5.28;;
7193;SDS011;3638;48.820;9.244;2023-08-06T02:13:56;6.13;;;5.53;;
7193;SDS011;3638;48.820;9.244;2023-08-06T02:16:23;6.82;;;6.13;;
7193;SDS011;3638;48.820;9.244;2023-08-06T02:18:50;5.30;;;4.80;;
7193;SDS011;3638;48.820;9.244;2023-08-06T02:21:17;5.20;;;4.70;;
7193;SDS011;3638;48.820;9.244;2023-08-06T02:23:45;4.80;;;4.27;;
7193;SDS011;3638;48.820;9.244;2023-08-06T02:26:12;6.40;;;4.57;;
7193;SDS011;3638;48.820;9.244;2023-08-06T02:28:39;5.00;;;4.53;;
7193;SDS011;3638;48.820;9.244;2023-08-06T02:31:07;6.40;;;4.70;;
7193;SDS011;3638;48.820;9.244;2023-08-06T02:33:35;5.47;;;4.93;;
7193;SDS011;3638;48.820;9.244;2023-08-06T02:36:02;6.43;;;5.83;;
7193;SDS011;3638;48.820;9.244;2023-08-06T02:38:30;6.13;;;5.63;;
7193;SDS011;3638;48.820;9.244;2023-08-06T02:40:57;6.20;;;5.47;;
7193;SDS011;3638;48.820;9.244;2023-08-06T02:43:24;6.53;;;5.77;;
7193;SDS011;3638;48.820;9.244;2023-08-06T02:45:52;6.20;;;5.50;;
7193;SDS011;3638;48.820;9.244;2023-08-06T02:48:23;5.13;;;4.63;;
7193;SDS011;3638;48.820;9.244;2023-08-06T02:50:51;5.87;;;4.70;;
7193;SDS011;3638;48.820;9.244;2023-08-06T02:53:18;4.67;;;4.10;;
7193;SDS011;3638;48.820;9.244;2023-08-06T02:55:45;4.70;;;4.00;;
7193;SDS011;3638;48.820;9.244;2023-08-06T02:58:13;5.27;;;3.97;;
7193;SDS011;3638;48.820;9.244;2023-08-06T03:00:41;4.37;;;3.87;;
7193;SDS011;3638;48.820;9.244;2023-08-06T03:03:08;4.13;;;3.73;;
7193;SDS011;3638;48.820;9.244;2023-08-06T03:05:37;4.30;;;3.90;;
7193;SDS011;3638;48.820;9.244;2023-08-06T03:08:04;5.47;;;3.60;;
7193;SDS011;3638;48.820;9.244;2023-08-06T03:10:31;6.80;;;3.90;;
7193;SDS011;3638;48.820;9.244;2023-08-06T03:12:58;4.10;;;3.70;;
7193;SDS011;3638;48.820;9.244;2023-08-06T03:15:25;3.80;;;3.50;;
7193;SDS011;3638;48.820;9.244;2023-08-06T03:17:55;4.00;;;3.60;;
7193;SDS011;3638;48.820;9.244;2023-08-06T03:20:22;4.57;;;3.70;;
7193;SDS011;3638;48.820;9.244;2023-08-06T03:22:52;4.20;;;3.80;;
7193;SDS011;3638;48.820;9.244;2023-08-06T03:25:19;4.03;;;3.73;;
7193;SDS011;3638;48.820;9.244;2023-08-06T03:27:46;3.67;;;3.37;;
7193;SDS011;3638;48.820;9.244;2023-08-06T03:30:13;3.90;;;3.50;;
7193;SDS011;3638;48.820;9.244;2023-08-06T03:32:41;6.83;;;3.50;;
7193;SDS011;3638;48.820;9.244;2023-08-06T03:35:08;4.10;;;3.70;;
7193;SDS011;3638;48.820;9.244;2023-08-06T03:37:35;3.90;;;3.37;;
7193;SDS011;3638;48.820;9.244;2023-08-06T03:40:04;4.57;;;3.20;;
7193;SDS011;3638;48.820;9.244;2023-08-06T03:42:32;4.17;;;3.30;;
7193;SDS011;3638;48.820;9.244;2023-08-06T03:44:59;3.50;;;3.20;;
7193;SDS011;3638;48.820;9.244;2023-08-06T03:47:27;4.63;;;3.43;;
7193;SDS011;3638;48.820;9.244;2023-08-06T03:49:54;5.13;;;3.10;;
7193;SDS011;3638;48.820;9.244;2023-08-06T03:52:21;4.23;;;3.30;;
7193;SDS011;3638;48.820;9.244;2023-08-06T03:54:48;4.67;;;3.13;;
7193;SDS011;3638;48.820;9.244;2023-08-06T03:57:17;3.50;;;3.20;;
7193;SDS011;3638;48.820;9.244;2023-08-06T03:59:44;7.03;;;3.20;;
7193;SDS011;3638;48.820;9.244;2023-08-06T04:02:11;5.17;;;3.53;;
7193;SDS011;3638;48.820;9.244;2023-08-06T04:04:38;4.40;;;3.20;;
7193;SDS011;3638;48.820;9.244;2023-08-06T04:07:06;4.80;;;3.57;;
7193;SDS011;3638;48.820;9.244;2023-08-06T04:09:33;4.30;;;3.63;;
7193;SDS011;3638;48.820;9.244;2023-08-06T04:12:01;5.13;;;3.83;;
7193;SDS011;3638;48.820;9.244;2023-08-06T04:14:31;4.07;;;3.27;;
7193;SDS011;3638;48.820;9.244;2023-08-06T04:16:58;4.40;;;3.40;;
7193;SDS011;3638;48.820;9.244;2023-08-06T04:19:25;3.70;;;3.40;;
7193;SDS011;3638;48.820;9.244;2023-08-06T04:21:52;5.03;;;3.80;;
7193;SDS011;3638;48.820;9.244;2023-08-06T04:24:19;5.00;;;3.30;;
7193;SDS011;3638;48.820;9.244;2023-08-06T04:26:46;4.60;;;3.50;;
7193;SDS011;3638;48.820;9.244;2023-08-06T04:29:14;4.97;;;3.67;;
7193;SDS011;3638;48.820;9.244;2023-08-06T04:31:42;3.93;;;3.30;;
7193;SDS011;3638;48.820;9.244;2023-08-06T04:34:09;3.47;;;3.17;;
7193;SDS011;3638;48.820;9.244;2023-08-06T04:36:36;3.90;;;3.40;;
7193;SDS011;3638;48.820;9.244;2023-08-06T04:39:04;5.93;;;4.07;;
7193;SDS011;3638;48.820;9.244;2023-08-06T04:41:31;6.00;;;5.40;;
7193;SDS011;3638;48.820;9.244;2023-08-06T04:43:59;7.97;;;4.90;;
7193;SDS011;3638;48.820;9.244;2023-08-06T04:46:26;7.83;;;5.23;;
7193;SDS011;3638;48.820;9.244;2023-08-06T04:48:54;4.25;;;3.85;;
7193;SDS011;3638;48.820;9.244;2023-08-06T04:51:21;4.28;;;3.65;;
7193;SDS011;3638;48.820;9.244;2023-08-06T04:53:49;6.13;;;3.60;;
7193;SDS011;3638;48.820;9.244;2023-08-06T04:56:16;5.00;;;3.70;;
7193;SDS011;3638;48.820;9.244;2023-08-06T04:58:43;4.10;;;3.70;;
7193;SDS011;3638;48.820;9.244;2023-08-06T05:01:10;6.60;;;3.55;;
7193;SDS011;3638;48.820;9.244;2023-08-06T05:03:37;5.97;;;3.53;;
7193;SDS011;3638;48.820;9.244;2023-08-06T05:06:06;5.18;;;3.38;;
7193;SDS011;3638;48.820;9.244;2023-08-06T05:08:33;4.70;;;3.05;;
7193;SDS011;3638;48.820;9.244;2023-08-06T05:11:00;3.77;;;3.47;;
7193;SDS011;3638;48.820;9.244;2023-08-06T05:13:28;4.18;;;3.60;;
7193;SDS011;3638;48.820;9.244;2023-08-06T05:15:55;4.30;;;3.55;;
7193;SDS011;3638;48.820;9.244;2023-08-06T05:18:22;6.07;;;3.10;;
7193;SDS011;3638;48.820;9.244;2023-08-06T05:20:49;5.13;;;3.60;;
7193;SDS011;3638;48.820;9.244;2023-08-06T05:23:18;3.38;;;3.08;;
7193;SDS011;3638;48.820;9.244;2023-08-06T05:25:45;5.00;;;3.05;;
7193;SDS011;3638;48.820;9.244;2023-08-06T05:28:12;3.08;;;2.80;;
7193;SDS011;3638;48.820;9.244;2023-08-06T05:30:39;4.32;;;3.20;;
7193;SDS011;3638;48.820;9.244;2023-08-06T05:33:07;3.92;;;2.97;;
7193;SDS011;3638;48.820;9.244;2023-08-06T05:35:34;5.35;;;2.92;;
7193;SDS011;3638;48.820;9.244;2023-08-06T05:38:01;3.25;;;2.83;;
7193;SDS011;3638;48.820;9.244;2023-08-06T05:40:30;3.20;;;2.67;;
7193;SDS011;3638;48.820;9.244;2023-08-06T05:43:00;3.00;;;2.70;;
7193;SDS011;3638;48.820;9.244;2023-08-06T05:45:27;3.47;;;2.80;;
7193;SDS011;3638;48.820;9.244;2023-08-06T05:47:54;4.68;;;2.70;;
7193;SDS011;3638;48.820;9.244;2023-08-06T05:50:23;2.40;;;2.20;;
7193;SDS011;3638;48.820;9.244;2023-08-06T05:52:50;2.88;;;2.42;;
7193;SDS011;3638;48.820;9.244;2023-08-06T05:55:18;4.25;;;2.50;;
7193;SDS011;3638;48.820;9.244;2023-08-06T05:57:47;3.80;;;2.63;;
7193;SDS011;3638;48.820;9.244;2023-08-06T06:00:14;2.58;;;2.38;;
7193;SDS011;3638;48.820;9.244;2023-08-06T06:02:41;3.80;;;2.80;;
7193;SDS011;3638;48.820;9.244;2023-08-06T06:05:09;2.58;;;2.38;;
7193;SDS011;3638;48.820;9.244;2023-08-06T06:07:36;3.67;;;2.10;;
7193;SDS011;3638;48.820;9.244;2023-08-06T06:10:03;4.53;;;2.00;;
7193;SDS011;3638;48.820;9.244;2023-08-06T06:12:31;3.88;;;2.20;;
7193;SDS011;3638;48.820;9.244;2023-08-06T06:15:00;2.38;;;1.88;;
7193;SDS011;3638;48.820;9.244;2023-08-06T06:17:28;3.33;;;1.80;;
7193;SDS011;3638;48.820;9.244;2023-08-06T06:19:55;2.20;;;1.83;;
7193;SDS011;3638;48.820;9.244;2023-08-06T06:22:23;2.25;;;1.70;;
7193;SDS011;3638;48.820;9.244;2023-08-06T06:24:50;2.28;;;1.50;;
7193;SDS011;3638;48.820;9.244;2023-08-06T06:27:17;3.10;;;1.50;;
7193;SDS011;3638;48.820;9.244;2023-08-06T06:29:44;2.53;;;1.40;;
7193;SDS011;3638;48.820;9.244;2023-08-06T06:32:13;2.85;;;1.60;;
7193;SDS011;3638;48.820;9.244;2023-08-06T06:34:40;2.33;;;1.60;;
7193;SDS011;3638;48.820;9.244;2023-08-06T06:37:07;1.52;;;1.38;;
7193;SDS011;3638;48.820;9.244;2023-08-06T06:39:35;1.40;;;1.30;;
7193;SDS011;3638;48.820;9.244;2023-08-06T06:42:02;1.40;;;1.30;;
7193;SDS011;3638;48.820;9.244;2023-08-06T06:44:29;2.83;;;1.67;;
7193;SDS011;3638;48.820;9.244;2023-08-06T06:46:57;2.97;;;1.65;;
7193;SDS011;3638;48.820;9.244;2023-08-06T06:49:25;3.63;;;1.88;;
7193;SDS011;3638;48.820;9.244;2023-08-06T06:51:52;3.55;;;1.83;;
7193;SDS011;3638;48.820;9.244;2023-08-06T06:54:19;3.00;;;1.70;;
7193;SDS011;3638;48.820;9.244;2023-08-06T06:56:47;1.53;;;1.43;;
7193;SDS011;3638;48.820;9.244;2023-08-06T06:59:14;1.75;;;1.50;;
7193;SDS011;3638;48.820;9.244;2023-08-06T07:01:41;2.50;;;1.30;;
7193;SDS011;3638;48.820;9.244;2023-08-06T07:04:08;1.73;;;1.38;;
7193;SDS011;3638;48.820;9.244;2023-08-06T07:06:37;2.35;;;1.23;;
7193;SDS011;3638;48.820;9.244;2023-08-06T07:09:04;1.60;;;1.50;;
7193;SDS011;3638;48.820;9.244;2023-08-06T07:11:31;2.00;;;1.67;;
7193;SDS011;3638;48.820;9.244;2023-08-06T07:13:59;1.42;;;1.33;;
7193;SDS011;3638;48.820;9.244;2023-08-06T07:16:26;1.75;;;1.25;;
7193;SDS011;3638;48.820;9.244;2023-08-06T07:18:54;1.85;;;1.40;;
7193;SDS011;3638;48.820;9.244;2023-08-06T07:21:22;1.30;;;1.20;;
7193;SDS011;3638;48.820;9.244;2023-08-06T07:23:50;1.58;;;1.35;;
7193;SDS011;3638;48.820;9.244;2023-08-06T07:26:17;1.73;;;1.20;;
7193;SDS011;3638;48.820;9.244;2023-08-06T07:28:44;1.50;;;1.40;;
7193;SDS011;3638;48.820;9.244;2023-08-06T07:31:12;1.50;;;1.40;;
7193;SDS011;3638;48.820;9.244;2023-08-06T07:33:39;2.20;;;1.48;;
7193;SDS011;3638;48.820;9.244;2023-08-06T07:36:10;1.92;;;1.50;;
7193;SDS011;3638;48.820;9.244;2023-08-06T07:38:38;1.40;;;1.30;;
7193;SDS011;3638;48.820;9.244;2023-08-06T07:41:06;1.50;;;1.40;;
7193;SDS011;3638;48.820;9.244;2023-08-06T07:43:34;1.65;;;1.38;;
7193;SDS011;3638;48.820;9.244;2023-08-06T07:46:01;2.60;;;1.60;;
7193;SDS011;3638;48.820;9.244;2023-08-06T07:48:29;1.65;;;1.30;;
7193;SDS011;3638;48.820;9.244;2023-08-06T07:50:56;1.70;;;1.60;;
7193;SDS011;3638;48.820;9.244;2023-08-06T07:53:24;2.38;;;1.50;;
7193;SDS011;3638;48.820;9.244;2023-08-06T07:55:54;2.25;;;1.42;;
7193;SDS011;3638;48.820;9.244;2023-08-06T07:58:23;1.55;;;1.20;;
7193;SDS011;3638;48.820;9.244;2023-08-06T08:00:51;1.13;;;1.13;;
7193;SDS011;3638;48.820;9.244;2023-08-06T08:03:18;1.15;;;1.10;;
7193;SDS011;3638;48.820;9.244;2023-08-06T08:05:45;1.55;;;1.20;;
7193;SDS011;3638;48.820;9.244;2023-08-06T08:08:13;3.53;;;1.20;;
7193;SDS011;3638;48.820;9.244;2023-08-06T08:10:40;1.20;;;1.10;;
7193;SDS011;3638;48.820;9.244;2023-08-06T08:13:07;1.58;;;1.00;;
7193;SDS011;3638;48.820;9.244;2023-08-06T08:15:36;1.13;;;1.13;;
7193;SDS011;3638;48.820;9.244;2023-08-06T08:18:03;1.00;;;1.00;;
7193;SDS011;3638;48.820;9.244;2023-08-06T08:20:31;1.88;;;1.25;;
7193;SDS011;3638;48.820;9.244;2023-08-06T08:23:00;1.13;;;1.00;;
7193;SDS011;3638;48.820;9.244;2023-08-06T08:25:27;1.13;;;0.95;;
7193;SDS011;3638;48.820;9.244;2023-08-06T08:27:56;1.38;;;1.27;;
7193;SDS011;3638;48.820;9.244;2023-08-06T08:30:24;1.08;;;1.00;;
7193;SDS011;3638;48.820;9.244;2023-08-06T08:32:53;0.80;;;0.80;;
7193;SDS011;3638;48.820;9.244;2023-08-06T08:35:20;0.80;;;0.80;;
7193;SDS011;3638;48.820;9.244;2023-08-06T08:37:47;0.77;;;0.77;;
7193;SDS011;3638;48.820;9.244;2023-08-06T08:40:15;0.98;;;0.90;;
7193;SDS011;3638;48.820;9.244;2023-08-06T08:42:43;0.80;;;0.80;;
7193;SDS011;3638;48.820;9.244;2023-08-06T08:45:11;1.67;;;0.80;;
7193;SDS011;3638;48.820;9.244;2023-08-06T08:47:39;0.98;;;0.80;;
7193;SDS011;3638;48.820;9.244;2023-08-06T08:50:09;0.80;;;0.80;;
7193;SDS011;3638;48.820;9.244;2023-08-06T08:52:38;0.70;;;0.70;;
7193;SDS011;3638;48.820;9.244;2023-08-06T08:55:06;0.90;;;0.70;;
7193;SDS011;3638;48.820;9.244;2023-08-06T08:57:34;0.80;;;0.77;;
7193;SDS011;3638;48.820;9.244;2023-08-06T09:00:02;0.70;;;0.70;;
7193;SDS011;3638;48.820;9.244;2023-08-06T09:02:29;0.80;;;0.80;;
7193;SDS011;3638;48.820;9.244;2023-08-06T09:04:59;0.90;;;0.90;;
7193;SDS011;3638;48.820;9.244;2023-08-06T09:07:29;0.70;;;0.70;;
7193;SDS011;3638;48.820;9.244;2023-08-06T09:09:59;0.75;;;0.75;;
7193;SDS011;3638;48.820;9.244;2023-08-06T09:12:30;2.97;;;0.80;;
7193;SDS011;3638;48.820;9.244;2023-08-06T09:14:57;0.90;;;0.90;;
7193;SDS011;3638;48.820;9.244;2023-08-06T09:17:25;0.70;;;0.70;;
7193;SDS011;3638;48.820;9.244;2023-08-06T09:19:53;1.13;;;0.90;;
7193;SDS011;3638;48.820;9.244;2023-08-06T09:22:20;0.90;;;0.90;;
7193;SDS011;3638;48.820;9.244;2023-08-06T09:24:49;0.77;;;0.77;;
7193;SDS011;3638;48.820;9.244;2023-08-06T09:27:16;0.70;;;0.70;;
7193;SDS011;3638;48.820;9.244;2023-08-06T09:29:43;0.68;;;0.68;;
7193;SDS011;3638;48.820;9.244;2023-08-06T09:32:11;0.68;;;0.68;;
7193;SDS011;3638;48.820;9.244;2023-08-06T09:34:39;0.80;;;0.80;;
7193;SDS011;3638;48.820;9.244;2023-08-06T09:37:08;0.70;;;0.70;;
7193;SDS011;3638;48.820;9.244;2023-08-06T09:39:37;1.50;;;0.80;;
7193;SDS011;3638;48.820;9.244;2023-08-06T09:42:07;1.23;;;0.80;;
7193;SDS011;3638;48.820;9.244;2023-08-06T09:44:34;0.70;;;0.70;;
7193;SDS011;3638;48.820;9.244;2023-08-06T09:47:02;0.80;;;0.80;;
7193;SDS011;3638;48.820;9.244;2023-08-06T09:49:40;0.80;;;0.80;;
7193;SDS011;3638;48.820;9.244;2023-08-06T09:52:09;1.10;;;1.00;;
7193;SDS011;3638;48.820;9.244;2023-08-06T09:54:37;0.80;;;0.80;;
7193;SDS011;3638;48.820;9.244;2023-08-06T09:57:06;0.80;;;0.80;;
7193;SDS011;3638;48.820;9.244;2023-08-06T09:59:34;0.70;;;0.70;;
7193;SDS011;3638;48.820;9.244;2023-08-06T10:02:03;0.80;;;0.80;;
7193;SDS011;3638;48.820;9.244;2023-08-06T10:04:39;0.70;;;0.70;;
7193;SDS011;3638;48.820;9.244;2023-08-06T10:07:06;0.95;;;0.90;;
7193;SDS011;3638;48.820;9.244;2023-08-06T10:09:33;1.00;;;1.00;;
7193;SDS011;3638;48.820;9.244;2023-08-06T10:12:01;0.77;;;0.77;;
7193;SDS011;3638;48.820;9.244;2023-08-06T10:14:30;0.85;;;0.80;;
7193;SDS011;3638;48.820;9.244;2023-08-06T10:16:59;0.70;;;0.70;;
7193;SDS011;3638;48.820;9.244;2023-08-06T10:19:27;0.73;;;0.73;;
7193;SDS011;3638;48.820;9.244;2023-08-06T10:24:50;0.90;;;0.90;;
7193;SDS011;3638;48.820;9.244;2023-08-06T10:27:21;0.70;;;0.70;;
7193;SDS011;3638;48.820;9.244;2023-08-06T10:29:54;0.77;;;0.77;;
7193;SDS011;3638;48.820;9.244;2023-08-06T10:32:22;0.68;;;0.68;;
7193;SDS011;3638;48.820;9.244;2023-08-06T10:35:27;0.75;;;0.75;;
7193;SDS011;3638;48.820;9.244;2023-08-06T10:37:57;0.80;;;0.80;;
7193;SDS011;3638;48.820;9.244;2023-08-06T10:40:25;0.65;;;0.65;;
7193;SDS011;3638;48.820;9.244;2023-08-06T10:42:54;0.70;;;0.70;;
7193;SDS011;3638;48.820;9.244;2023-08-06T10:45:23;0.70;;;0.70;;
7193;SDS011;3638;48.820;9.244;2023-08-06T10:47:53;0.70;;;0.70;;
7193;SDS011;3638;48.820;9.244;2023-08-06T10:50:21;0.70;;;0.70;;
7193;SDS011;3638;48.820;9.244;2023-08-06T10:52:49;1.27;;;0.85;;
7193;SDS011;3638;48.820;9.244;2023-08-06T10:55:21;0.80;;;0.80;;
7193;SDS011;3638;48.820;9.244;2023-08-06T10:57:50;0.90;;;0.90;;
7193;SDS011;3638;48.820;9.244;2023-08-06T11:00:17;1.65;;;0.80;;
7193;SDS011;3638;48.820;9.244;2023-08-06T11:02:45;1.17;;;0.80;;
7193;SDS011;3638;48.820;9.244;2023-08-06T11:05:14;0.80;;;0.80;;
7193;SDS011;3638;48.820;9.244;2023-08-06T11:07:41;0.90;;;0.90;;
7193;SDS011;3638;48.820;9.244;2023-08-06T11:10:09;0.88;;;0.88;;
7193;SDS011;3638;48.820;9.244;2023-08-06T11:12:37;0.90;;;0.90;;
7193;SDS011;3638;48.820;9.244;2023-08-06T11:15:05;0.90;;;0.90;;
7193;SDS011;3638;48.820;9.244;2023-08-06T11:17:34;1.30;;;1.20;;
7193;SDS011;3638;48.820;9.244;2023-08-06T11:20:04;1.17;;;1.10;;
7193;SDS011;3638;48.820;9.244;2023-08-06T11:22:32;1.23;;;1.13;;
7193;SDS011;3638;48.820;9.244;2023-08-06T11:24:59;1.10;;;1.10;;
7193;SDS011;3638;48.820;9.244;2023-08-06T11:27:27;1.42;;;1.10;;
7193;SDS011;3638;48.820;9.244;2023-08-06T11:29:55;1.20;;;1.20;;
7193;SDS011;3638;48.820;9.244;2023-08-06T11:32:22;1.30;;;1.20;;
7193;SDS011;3638;48.820;9.244;2023-08-06T11:34:49;1.20;;;1.20;;
7193;SDS011;3638;48.820;9.244;2023-08-06T11:37:21;1.40;;;1.23;;
7193;SDS011;3638;48.820;9.244;2023-08-06T11:39:50;1.50;;;1.40;;
7193;SDS011;3638;48.820;9.244;2023-08-06T11:42:18;1.38;;;1.30;;
7193;SDS011;3638;48.820;9.244;2023-08-06T11:44:45;1.30;;;1.23;;
7193;SDS011;3638;48.820;9.244;2023-08-06T11:47:14;2.60;;;1.40;;
7193;SDS011;3638;48.820;9.244;2023-08-06T11:49:43;1.60;;;1.50;;
7193;SDS011;3638;48.820;9.244;2023-08-06T11:52:15;1.63;;;1.40;;
7193;SDS011;3638;48.820;9.244;2023-08-06T11:54:46;1.83;;;1.73;;
7193;SDS011;3638;48.820;9.244;2023-08-06T11:57:14;2.42;;;1.60;;
7193;SDS011;3638;48.820;9.244;2023-08-06T11:59:42;2.70;;;1.80;;
7193;SDS011;3638;48.820;9.244;2023-08-06T12:02:10;1.50;;;1.40;;
7193;SDS011;3638;48.820;9.244;2023-08-06T12:04:57;1.73;;;1.63;;
7193;SDS011;3638;48.820;9.244;2023-08-06T12:07:26;2.13;;;1.92;;
7193;SDS011;3638;48.820;9.244;2023-08-06T12:09:55;2.88;;;1.85;;
7193;SDS011;3638;48.820;9.244;2023-08-06T12:12:23;1.80;;;1.70;;
7193;SDS011;3638;48.820;9.244;2023-08-06T12:14:50;3.93;;;2.00;;
7193;SDS011;3638;48.820;9.244;2023-08-06T12:17:17;2.20;;;2.00;;
7193;SDS011;3638;48.820;9.244;2023-08-06T12:19:45;3.87;;;2.07;;
7193;SDS011;3638;48.820;9.244;2023-08-06T12:22:13;3.27;;;2.13;;
7193;SDS011;3638;48.820;9.244;2023-08-06T12:24:41;3.70;;;2.10;;
7193;SDS011;3638;48.820;9.244;2023-08-06T12:27:10;2.50;;;2.10;;
7193;SDS011;3638;48.820;9.244;2023-08-06T12:29:40;2.10;;;1.90;;
7193;SDS011;3638;48.820;9.244;2023-08-06T12:32:08;3.17;;;2.20;;
7193;SDS011;3638;48.820;9.244;2023-08-06T12:34:37;2.23;;;2.07;;
7193;SDS011;3638;48.820;9.244;2023-08-06T12:37:04;2.40;;;2.07;;
7193;SDS011;3638;48.820;9.244;2023-08-06T12:39:32;2.33;;;2.10;;
7193;SDS011;3638;48.820;9.244;2023-08-06T12:41:59;2.57;;;2.20;;
7193;SDS011;3638;48.820;9.244;2023-08-06T12:44:28;2.20;;;2.03;;
7193;SDS011;3638;48.820;9.244;2023-08-06T12:46:55;3.05;;;1.70;;
7193;SDS011;3638;48.820;9.244;2023-08-06T12:49:23;2.75;;;1.88;;
7193;SDS011;3638;48.820;9.244;2023-08-06T12:51:51;2.00;;;1.80;;
7193;SDS011;3638;48.820;9.244;2023-08-06T12:54:18;2.35;;;1.70;;
7193;SDS011;3638;48.820;9.244;2023-08-06T12:56:45;1.80;;;1.70;;
7193;SDS011;3638;48.820;9.244;2023-08-06T12:59:13;2.70;;;1.60;;
7193;SDS011;3638;48.820;9.244;2023-08-06T13:01:43;2.70;;;1.67;;
7193;SDS011;3638;48.820;9.244;2023-08-06T13:04:10;2.20;;;1.55;;
7193;SDS011;3638;48.820;9.244;2023-08-06T13:06:38;2.47;;;1.30;;
7193;SDS011;3638;48.820;9.244;2023-08-06T13:09:06;1.63;;;1.52;;
7193;SDS011;3638;48.820;9.244;2023-08-06T13:11:33;2.88;;;1.67;;
7193;SDS011;3638;48.820;9.244;2023-08-06T13:14:03;2.63;;;1.33;;
7193;SDS011;3638;48.820;9.244;2023-08-06T13:16:32;1.92;;;1.52;;
7193;SDS011;3638;48.820;9.244;2023-08-06T13:19:00;1.63;;;1.52;;
7193;SDS011;3638;48.820;9.244;2023-08-06T13:21:31;2.75;;;1.70;;
7193;SDS011;3638;48.820;9.244;2023-08-06T13:23:59;1.60;;;1.50;;
7193;SDS011;3638;48.820;9.244;2023-08-06T13:26:27;1.42;;;1.33;;
7193;SDS011;3638;48.820;9.244;2023-08-06T13:28:54;1.50;;;1.40;;
7193;SDS011;3638;48.820;9.244;2023-08-06T13:31:22;2.03;;;1.70;;
7193;SDS011;3638;48.820;9.244;2023-08-06T13:33:49;1.40;;;1.30;;
7193;SDS011;3638;48.820;9.244;2023-08-06T13:36:18;1.75;;;1.65;;
7193;SDS011;3638;48.820;9.244;2023-08-06T13:38:45;3.00;;;2.33;;
7193;SDS011;3638;48.820;9.244;2023-08-06T13:41:12;1.63;;;1.40;;
7193;SDS011;3638;48.820;9.244;2023-08-06T13:43:39;1.50;;;1.40;;
7193;SDS011;3638;48.820;9.244;2023-08-06T13:46:07;3.63;;;1.25;;
7193;SDS011;3638;48.820;9.244;2023-08-06T13:48:34;1.90;;;1.23;;
7193;SDS011;3638;48.820;9.244;2023-08-06T13:51:01;2.80;;;1.27;;
7193;SDS011;3638;48.820;9.244;2023-08-06T13:53:30;1.20;;;1.10;;
7193;SDS011;3638;48.820;9.244;2023-08-06T13:55:57;1.23;;;1.20;;
7193;SDS011;3638;48.820;9.244;2023-08-06T13:58:24;1.15;;;1.15;;
7193;SDS011;3638;48.820;9.244;2023-08-06T14:00:52;1.20;;;1.10;;
7193;SDS011;3638;48.820;9.244;2023-08-06T14:03:19;2.88;;;1.33;;
7193;SDS011;3638;48.820;9.244;2023-08-06T14:05:46;1.55;;;1.23;;
7193;SDS011;3638;48.820;9.244;2023-08-06T14:08:14;1.50;;;1.17;;
7193;SDS011;3638;48.820;9.244;2023-08-06T14:10:44;1.23;;;1.10;;
7193;SDS011;3638;48.820;9.244;2023-08-06T14:13:11;1.40;;;1.30;;
7193;SDS011;3638;48.820;9.244;2023-08-06T14:15:39;2.13;;;1.40;;
7193;SDS011;3638;48.820;9.244;2023-08-06T14:18:06;1.30;;;1.30;;
7193;SDS011;3638;48.820;9.244;2023-08-06T14:20:34;2.40;;;1.33;;
7193;SDS011;3638;48.820;9.244;2023-08-06T14:23:01;1.38;;;1.27;;
7193;SDS011;3638;48.820;9.244;2023-08-06T14:25:29;1.95;;;1.30;;
7193;SDS011;3638;48.820;9.244;2023-08-06T14:27:58;1.52;;;1.30;;
7193;SDS011;3638;48.820;9.244;2023-08-06T14:30:25;3.58;;;1.30;;
7193;SDS011;3638;48.820;9.244;2023-08-06T14:32:52;1.45;;;1.35;;
7193;SDS011;3638;48.820;9.244;2023-08-06T14:35:19;2.17;;;1.35;;
7193;SDS011;3638;48.820;9.244;2023-08-06T14:37:47;1.40;;;1.30;;
7193;SDS011;3638;48.820;9.244;2023-08-06T14:40:14;1.85;;;1.40;;
7193;SDS011;3638;48.820;9.244;2023-08-06T14:42:41;2.30;;;1.23;;
7193;SDS011;3638;48.820;9.244;2023-08-06T14:45:10;1.50;;;1.40;;
7193;SDS011;3638;48.820;9.244;2023-08-06T14:47:37;1.63;;;1.35;;
7193;SDS011;3638;48.820;9.244;2023-08-06T14:50:05;1.50;;;1.40;;
7193;SDS011;3638;48.820;9.244;2023-08-06T14:52:32;1.42;;;1.33;;
7193;SDS011;3638;48.820;9.244;2023-08-06T14:54:59;2.33;;;1.55;;
7193;SDS011;3638;48.820;9.244;2023-08-06T14:57:28;1.48;;;1.38;;
7193;SDS011;3638;48.820;9.244;2023-08-06T14:59:56;1.30;;;1.20;;
7193;SDS011;3638;48.820;9.244;2023-08-06T15:02:25;2.47;;;1.50;;
7193;SDS011;3638;48.820;9.244;2023-08-06T15:04:52;1.50;;;1.40;;
7193;SDS011;3638;48.820;9.244;2023-08-06T15:07:20;1.58;;;1.20;;
7193;SDS011;3638;48.820;9.244;2023-08-06T15:09:47;1.30;;;1.20;;
7193;SDS011;3638;48.820;9.244;2023-08-06T15:12:14;1.45;;;1.35;;
7193;SDS011;3638;48.820;9.244;2023-08-06T15:14:42;1.30;;;1.20;;
7193;SDS011;3638;48.820;9.244;2023-08-06T15:17:09;1.13;;;1.13;;
7193;SDS011;3638;48.820;9.244;2023-08-06T15:19:38;1.40;;;1.30;;